createdAt,value
2023-04-26T00:00:45.853Z,8.05
2023-04-26T00:01:49.585Z,8.04
2023-04-26T00:02:53.416Z,8.00
2023-04-26T00:03:56.580Z,8.00
2023-04-26T00:05:02.424Z,7.99
2023-04-26T00:06:05.666Z,8.02
2023-04-26T00:07:08.572Z,8.01
2023-04-26T00:08:11.546Z,8.00
2023-04-26T00:09:14.601Z,7.99
2023-04-26T00:10:17.616Z,7.96
2023-04-26T00:11:20.565Z,7.99
2023-04-26T00:12:23.383Z,7.98
2023-04-26T00:13:26.378Z,7.97
2023-04-26T00:14:29.265Z,7.94
2023-04-26T00:15:32.392Z,7.92
2023-04-26T00:16:35.425Z,7.89
2023-04-26T00:17:38.485Z,7.90
2023-04-26T00:18:41.510Z,7.91
2023-04-26T00:19:45.251Z,7.90
2023-04-26T00:20:48.091Z,7.88
2023-04-26T00:21:51.002Z,7.90
2023-04-26T00:22:53.850Z,7.88
2023-04-26T00:23:56.691Z,7.86
2023-04-26T00:24:59.937Z,7.85
2023-04-26T00:26:02.991Z,7.87
2023-04-26T00:27:09.269Z,7.86
2023-04-26T00:28:12.133Z,7.85
2023-04-26T00:29:15.027Z,7.83
2023-04-26T00:30:18.146Z,7.83
2023-04-26T00:31:21.103Z,7.86
2023-04-26T00:32:24.155Z,7.86
2023-04-26T00:33:27.124Z,7.83
2023-04-26T00:34:34.265Z,7.84
2023-04-26T00:35:38.211Z,7.86
2023-04-26T00:36:41.054Z,7.85
2023-04-26T00:37:43.950Z,7.85
2023-04-26T00:38:47.065Z,7.86
2023-04-26T00:39:49.967Z,7.84
2023-04-26T00:40:52.936Z,7.83
2023-04-26T00:41:56.278Z,7.85
2023-04-26T00:42:59.490Z,7.83
2023-04-26T00:44:02.384Z,7.82
2023-04-26T00:45:06.701Z,7.80
2023-04-26T00:46:10.315Z,7.82
2023-04-26T00:47:14.361Z,7.77
2023-04-26T00:48:18.156Z,7.76
2023-04-26T00:49:24.214Z,7.76
2023-04-26T00:50:27.609Z,7.73
2023-04-26T00:51:31.494Z,7.75
2023-04-26T00:52:34.510Z,7.72
2023-04-26T00:53:37.483Z,7.69
2023-04-26T00:54:42.614Z,7.68
2023-04-26T00:55:48.040Z,7.69
2023-04-26T00:56:53.252Z,7.67
2023-04-26T00:57:56.302Z,7.70
2023-04-26T00:58:59.441Z,7.67
2023-04-26T01:00:02.301Z,7.65
2023-04-26T01:01:05.402Z,7.63
2023-04-26T01:02:08.591Z,7.63
2023-04-26T01:03:11.938Z,7.63
2023-04-26T01:04:15.545Z,7.62
2023-04-26T01:05:18.583Z,7.61
2023-04-26T01:06:22.725Z,7.62
2023-04-26T01:07:25.958Z,7.63
2023-04-26T01:08:29.796Z,7.58
2023-04-26T01:09:33.902Z,7.58
2023-04-26T01:10:36.964Z,7.57
2023-04-26T01:11:40.214Z,7.60
2023-04-26T01:12:43.147Z,7.56
2023-04-26T01:13:46.642Z,7.58
2023-04-26T01:14:49.779Z,7.55
2023-04-26T01:15:54.852Z,7.56
2023-04-26T01:16:58.122Z,7.56
2023-04-26T01:18:01.985Z,7.52
2023-04-26T01:19:11.052Z,7.51
2023-04-26T01:20:14.910Z,7.51
2023-04-26T01:21:22.346Z,7.50
2023-04-26T01:22:25.269Z,7.52
2023-04-26T01:23:28.146Z,7.51
2023-04-26T01:24:31.792Z,7.47
2023-04-26T01:25:35.305Z,7.46
2023-04-26T01:26:48.242Z,7.47
2023-04-26T01:27:51.132Z,7.47
2023-04-26T01:28:54.252Z,7.43
2023-04-26T01:29:57.289Z,7.42
2023-04-26T01:31:00.242Z,7.41
2023-04-26T01:32:03.158Z,7.43
2023-04-26T01:33:06.681Z,7.40
2023-04-26T01:34:09.876Z,7.37
2023-04-26T01:35:12.808Z,7.36
2023-04-26T01:36:15.717Z,7.35
2023-04-26T01:37:18.574Z,7.35
2023-04-26T01:38:21.689Z,7.34
2023-04-26T01:39:24.549Z,7.32
2023-04-26T01:40:27.517Z,7.34
2023-04-26T01:41:30.709Z,7.37
2023-04-26T01:42:36.740Z,7.35
2023-04-26T01:43:39.569Z,7.36
2023-04-26T01:44:42.943Z,7.36
2023-04-26T01:45:48.863Z,7.37
2023-04-26T01:47:07.017Z,7.33
2023-04-26T01:48:10.245Z,7.33
2023-04-26T01:49:13.111Z,7.33
2023-04-26T01:50:16.374Z,7.36
2023-04-26T01:51:19.270Z,7.32
2023-04-26T01:52:22.973Z,7.33
2023-04-26T01:53:26.063Z,7.34
2023-04-26T01:54:28.931Z,7.34
2023-04-26T01:55:31.915Z,7.34
2023-04-26T01:56:35.052Z,7.30
2023-04-26T01:57:37.960Z,7.30
2023-04-26T01:58:42.298Z,7.33
2023-04-26T01:59:45.775Z,7.33
2023-04-26T02:00:48.768Z,7.30
2023-04-26T02:01:51.901Z,7.30
2023-04-26T02:02:56.101Z,7.33
2023-04-26T02:03:59.304Z,7.30
2023-04-26T02:05:02.736Z,7.33
2023-04-26T02:06:05.761Z,7.30
2023-04-26T02:07:08.671Z,7.32
2023-04-26T02:08:21.771Z,7.34
2023-04-26T02:09:24.664Z,7.32
2023-04-26T02:10:27.526Z,7.31
2023-04-26T02:11:30.821Z,7.30
2023-04-26T02:12:34.133Z,7.29
2023-04-26T02:13:38.030Z,7.31
2023-04-26T02:14:40.942Z,7.29
2023-04-26T02:15:47.086Z,7.28
2023-04-26T02:16:51.923Z,7.25
2023-04-26T02:17:55.755Z,7.28
2023-04-26T02:19:03.878Z,7.25
2023-04-26T02:20:10.412Z,7.27
2023-04-26T02:21:13.353Z,7.26
2023-04-26T02:22:16.434Z,7.24
2023-04-26T02:23:19.387Z,7.22
2023-04-26T02:24:23.260Z,7.23
2023-04-26T02:25:27.138Z,7.25
2023-04-26T02:26:32.686Z,7.24
2023-04-26T02:27:37.196Z,7.27
2023-04-26T02:28:40.395Z,7.24
2023-04-26T02:29:44.702Z,7.24
2023-04-26T02:30:48.527Z,7.28
2023-04-26T02:31:51.630Z,7.24
2023-04-26T02:32:55.539Z,7.26
2023-04-26T02:33:58.590Z,7.24
2023-04-26T02:35:01.604Z,7.23
2023-04-26T02:36:08.329Z,7.21
2023-04-26T02:37:11.982Z,7.22
2023-04-26T02:38:15.633Z,7.19
2023-04-26T02:39:18.547Z,7.18
2023-04-26T02:40:21.882Z,7.18
2023-04-26T02:41:24.992Z,7.20
2023-04-26T02:42:28.376Z,7.19
2023-04-26T02:43:31.282Z,7.19
2023-04-26T02:44:34.531Z,7.15
2023-04-26T02:45:43.804Z,7.16
2023-04-26T02:46:48.253Z,7.18
2023-04-26T02:47:51.465Z,7.17
2023-04-26T02:48:54.700Z,7.13
2023-04-26T02:49:57.768Z,7.14
2023-04-26T02:51:01.193Z,7.11
2023-04-26T02:52:05.151Z,7.06
2023-04-26T02:53:08.333Z,7.01
2023-04-26T02:54:11.189Z,6.97
2023-04-26T02:55:14.400Z,6.94
2023-04-26T02:56:17.364Z,6.90
2023-04-26T02:57:20.368Z,6.85
2023-04-26T02:58:23.388Z,6.82
2023-04-26T02:59:26.389Z,6.82
2023-04-26T03:00:29.357Z,6.78
2023-04-26T03:01:32.373Z,6.78
2023-04-26T03:02:36.541Z,6.74
2023-04-26T03:03:39.716Z,6.75
2023-04-26T03:04:42.694Z,6.69
2023-04-26T03:05:46.264Z,6.67
2023-04-26T03:06:49.443Z,6.65
2023-04-26T03:07:52.431Z,6.62
2023-04-26T03:08:55.568Z,6.63
2023-04-26T03:09:58.723Z,6.59
2023-04-26T03:11:02.107Z,6.55
2023-04-26T03:12:06.856Z,6.55
2023-04-26T03:13:09.987Z,6.52
2023-04-26T03:14:13.420Z,6.51
2023-04-26T03:15:16.535Z,6.46
2023-04-26T03:16:21.433Z,6.46
2023-04-26T03:17:25.103Z,6.43
2023-04-26T03:18:28.427Z,6.38
2023-04-26T03:19:31.753Z,6.38
2023-04-26T03:20:35.568Z,6.36
2023-04-26T03:21:38.617Z,6.30
2023-04-26T03:22:42.518Z,6.30
2023-04-26T03:23:45.494Z,6.25
2023-04-26T03:24:49.213Z,6.23
2023-04-26T03:25:52.712Z,6.20
2023-04-26T03:26:55.838Z,6.18
2023-04-26T03:27:58.934Z,6.16
2023-04-26T03:29:02.968Z,6.13
2023-04-26T03:30:06.736Z,6.12
2023-04-26T03:31:09.981Z,6.09
2023-04-26T03:32:12.910Z,6.09
2023-04-26T03:33:16.867Z,6.06
2023-04-26T03:34:20.259Z,6.04
2023-04-26T03:35:23.516Z,6.02
2023-04-26T03:36:28.614Z,6.00
2023-04-26T03:37:31.992Z,6.01
2023-04-26T03:38:39.018Z,5.99
2023-04-26T03:39:42.595Z,5.96
2023-04-26T03:40:47.104Z,5.91
2023-04-26T03:41:50.043Z,5.92
2023-04-26T03:42:52.940Z,5.90
2023-04-26T03:43:55.779Z,5.88
2023-04-26T03:44:59.777Z,5.85
2023-04-26T03:46:02.781Z,5.82
2023-04-26T03:47:06.227Z,5.83
2023-04-26T03:48:09.220Z,5.82
2023-04-26T03:49:12.332Z,5.80
2023-04-26T03:50:15.517Z,5.77
2023-04-26T03:51:18.402Z,5.77
2023-04-26T03:52:21.310Z,5.76
2023-04-26T03:53:24.348Z,5.74
2023-04-26T03:54:27.294Z,5.71
2023-04-26T03:55:33.307Z,5.69
2023-04-26T03:56:37.285Z,5.69
2023-04-26T03:57:40.227Z,5.68
2023-04-26T03:58:43.317Z,5.67
2023-04-26T03:59:47.030Z,5.66
2023-04-26T04:00:49.935Z,5.62
2023-04-26T04:01:53.048Z,5.62
2023-04-26T04:02:56.926Z,5.58
2023-04-26T04:04:00.690Z,5.57
2023-04-26T04:05:05.713Z,5.58
2023-04-26T04:06:08.629Z,5.57
2023-04-26T04:07:11.478Z,5.57
2023-04-26T04:08:14.384Z,5.57
2023-04-26T04:09:17.488Z,5.55
2023-04-26T04:10:20.385Z,5.53
2023-04-26T04:11:23.350Z,5.52
2023-04-26T04:12:27.048Z,5.50
2023-04-26T04:13:30.122Z,5.51
2023-04-26T04:14:33.671Z,5.49
2023-04-26T04:15:36.721Z,5.48
2023-04-26T04:16:40.251Z,5.49
2023-04-26T04:17:43.515Z,5.49
2023-04-26T04:18:47.031Z,5.48
2023-04-26T04:19:50.246Z,5.47
2023-04-26T04:20:53.119Z,5.45
2023-04-26T04:21:56.449Z,5.44
2023-04-26T04:23:02.262Z,5.43
2023-04-26T04:24:05.986Z,5.42
2023-04-26T04:25:10.645Z,5.42
2023-04-26T04:26:14.637Z,5.45
2023-04-26T04:27:17.611Z,5.42
2023-04-26T04:28:22.661Z,5.42
2023-04-26T04:29:25.671Z,5.42
2023-04-26T04:30:29.723Z,5.42
2023-04-26T04:31:34.013Z,5.42
2023-04-26T04:32:38.118Z,5.43
2023-04-26T04:33:41.611Z,5.42
2023-04-26T04:34:46.831Z,5.42
2023-04-26T04:35:50.854Z,5.45
2023-04-26T04:36:54.322Z,5.41
2023-04-26T04:37:57.247Z,5.44
2023-04-26T04:39:00.500Z,5.41
2023-04-26T04:40:04.100Z,5.41
2023-04-26T04:41:10.367Z,5.44
2023-04-26T04:42:13.541Z,5.41
2023-04-26T04:43:16.954Z,5.41
2023-04-26T04:44:20.709Z,5.44
2023-04-26T04:45:23.782Z,5.45
2023-04-26T04:46:28.882Z,5.44
2023-04-26T04:47:31.847Z,5.42
2023-04-26T04:48:35.687Z,5.44
2023-04-26T04:49:38.643Z,5.45
2023-04-26T04:50:44.961Z,5.42
2023-04-26T04:51:48.695Z,5.43
2023-04-26T04:52:51.964Z,5.46
2023-04-26T04:53:55.043Z,5.43
2023-04-26T04:54:58.051Z,5.41
2023-04-26T04:56:00.950Z,5.44
2023-04-26T04:57:04.074Z,5.43
2023-04-26T04:58:07.670Z,5.42
2023-04-26T04:59:11.414Z,5.42
2023-04-26T05:00:15.812Z,5.45
2023-04-26T05:01:38.817Z,5.44
2023-04-26T05:02:48.228Z,5.44
2023-04-26T05:03:52.166Z,5.44
2023-04-26T05:04:56.092Z,5.44
2023-04-26T05:06:00.412Z,5.41
2023-04-26T05:07:03.291Z,5.41
2023-04-26T05:08:07.962Z,5.44
2023-04-26T05:09:11.578Z,5.44
2023-04-26T05:10:15.015Z,5.41
2023-04-26T05:11:17.957Z,5.43
2023-04-26T05:12:21.100Z,5.43
2023-04-26T05:13:24.047Z,5.47
2023-04-26T05:14:27.339Z,5.45
2023-04-26T05:15:30.427Z,5.48
2023-04-26T05:16:33.430Z,5.52
2023-04-26T05:17:38.520Z,5.54
2023-04-26T05:18:57.216Z,5.58
2023-04-26T05:20:00.185Z,5.61
2023-04-26T05:21:03.024Z,5.64
2023-04-26T05:22:06.407Z,5.68
2023-04-26T05:23:09.430Z,5.72
2023-04-26T05:24:12.270Z,5.75
2023-04-26T05:25:15.183Z,5.78
2023-04-26T05:26:19.100Z,5.81
2023-04-26T05:27:29.042Z,5.84
2023-04-26T05:28:49.440Z,5.88
2023-04-26T05:30:08.544Z,5.93
2023-04-26T05:31:34.755Z,5.97
2023-04-26T05:32:50.414Z,6.01
2023-04-26T05:34:08.343Z,6.05
2023-04-26T05:35:13.464Z,6.07
2023-04-26T05:36:16.532Z,6.10
2023-04-26T05:37:19.768Z,6.13
2023-04-26T05:38:22.614Z,6.18
2023-04-26T05:39:25.958Z,6.26
2023-04-26T05:40:28.853Z,6.28
2023-04-26T05:41:31.790Z,6.35
2023-04-26T05:42:34.939Z,6.40
2023-04-26T05:43:38.478Z,6.45
2023-04-26T05:44:42.886Z,6.49
2023-04-26T05:45:56.735Z,6.55
2023-04-26T05:47:00.740Z,6.60
2023-04-26T05:48:03.756Z,6.65
2023-04-26T05:49:07.096Z,6.71
2023-04-26T05:50:10.556Z,6.78
2023-04-26T05:51:13.708Z,6.81
2023-04-26T05:52:16.550Z,6.86
2023-04-26T05:53:20.248Z,6.86
2023-04-26T05:54:23.537Z,6.90
2023-04-26T05:55:26.576Z,6.94
2023-04-26T05:56:29.702Z,7.02
2023-04-26T05:57:34.723Z,7.01
2023-04-26T05:58:37.910Z,7.05
2023-04-26T05:59:41.344Z,7.07
2023-04-26T06:00:44.293Z,7.14
2023-04-26T06:01:47.924Z,7.18
2023-04-26T06:02:50.948Z,7.22
2023-04-26T06:03:58.091Z,7.28
2023-04-26T06:05:06.741Z,7.32
2023-04-26T06:06:09.935Z,7.41
2023-04-26T06:07:14.569Z,7.46
2023-04-26T06:08:17.450Z,7.55
2023-04-26T06:09:20.447Z,7.62
2023-04-26T06:10:23.692Z,7.72
2023-04-26T06:11:26.974Z,7.81
2023-04-26T06:12:30.211Z,7.92
2023-04-26T06:13:33.322Z,8.04
2023-04-26T06:14:36.250Z,8.11
2023-04-26T06:15:42.464Z,8.19
2023-04-26T06:16:45.528Z,8.30
2023-04-26T06:17:48.449Z,8.43
2023-04-26T06:18:52.356Z,8.60
2023-04-26T06:19:55.388Z,8.69
2023-04-26T06:20:58.505Z,8.82
2023-04-26T06:22:01.419Z,8.95
2023-04-26T06:23:04.806Z,9.07
2023-04-26T06:24:07.820Z,9.08
2023-04-26T06:25:13.104Z,9.16
2023-04-26T06:26:16.065Z,9.19
2023-04-26T06:27:18.973Z,9.31
2023-04-26T06:28:23.614Z,9.42
2023-04-26T06:29:26.447Z,9.48
2023-04-26T06:30:29.431Z,9.50
2023-04-26T06:31:32.490Z,9.54
2023-04-26T06:32:35.862Z,9.56
2023-04-26T06:33:38.745Z,9.59
2023-04-26T06:34:43.928Z,9.64
2023-04-26T06:35:46.926Z,9.68
2023-04-26T06:36:51.138Z,9.72
2023-04-26T06:37:54.874Z,9.84
2023-04-26T06:38:57.762Z,9.94
2023-04-26T06:40:02.189Z,10.01
2023-04-26T06:41:05.132Z,10.10
2023-04-26T06:42:08.608Z,10.28
2023-04-26T06:43:26.535Z,10.53
2023-04-26T06:44:38.855Z,10.82
2023-04-26T06:45:43.524Z,10.88
2023-04-26T06:46:47.622Z,11.05
2023-04-26T06:47:53.049Z,11.09
2023-04-26T06:48:59.472Z,11.31
2023-04-26T06:50:04.545Z,11.45
2023-04-26T06:51:12.200Z,11.61
2023-04-26T06:52:15.342Z,11.62
2023-04-26T06:53:18.447Z,11.64
2023-04-26T06:54:21.586Z,11.67
2023-04-26T06:55:24.971Z,11.73
2023-04-26T06:56:27.853Z,11.78
2023-04-26T06:57:30.845Z,11.81
2023-04-26T06:58:33.691Z,11.88
2023-04-26T06:59:36.759Z,12.08
2023-04-26T07:00:39.635Z,12.26
2023-04-26T07:01:42.743Z,12.47
2023-04-26T07:02:46.254Z,12.61
2023-04-26T07:03:49.416Z,12.77
2023-04-26T07:04:52.997Z,12.96
2023-04-26T07:05:56.856Z,13.13
2023-04-26T07:06:59.673Z,13.23
2023-04-26T07:08:02.530Z,13.33
2023-04-26T07:09:05.444Z,13.19
2023-04-26T07:10:09.605Z,12.99
2023-04-26T07:11:13.492Z,12.83
2023-04-26T07:12:16.777Z,12.85
2023-04-26T07:13:19.684Z,12.91
2023-04-26T07:14:23.468Z,12.94
2023-04-26T07:15:26.436Z,12.90
2023-04-26T07:16:29.354Z,12.82
2023-04-26T07:17:32.916Z,12.66
2023-04-26T07:18:35.836Z,12.59
2023-04-26T07:19:38.860Z,12.59
2023-04-26T07:20:41.786Z,12.64
2023-04-26T07:21:44.801Z,12.58
2023-04-26T07:22:47.918Z,12.44
2023-04-26T07:23:57.010Z,12.24
2023-04-26T07:24:59.901Z,12.00
2023-04-26T07:26:04.496Z,11.81
2023-04-26T07:27:07.472Z,11.64
2023-04-26T07:28:10.404Z,11.57
2023-04-26T07:29:13.518Z,11.61
2023-04-26T07:30:16.383Z,11.70
2023-04-26T07:31:19.969Z,11.67
2023-04-26T07:32:23.269Z,11.64
2023-04-26T07:33:26.614Z,11.64
2023-04-26T07:34:29.622Z,11.52
2023-04-26T07:35:34.831Z,11.44
2023-04-26T07:36:37.838Z,11.30
2023-04-26T07:37:41.157Z,11.21
2023-04-26T07:38:44.099Z,11.13
2023-04-26T07:39:46.968Z,11.16
2023-04-26T07:40:50.600Z,11.30
2023-04-26T07:41:53.425Z,11.36
2023-04-26T07:42:56.236Z,11.40
2023-04-26T07:43:59.264Z,11.40
2023-04-26T07:45:02.135Z,11.42
2023-04-26T07:46:05.134Z,11.64
2023-04-26T07:47:13.772Z,11.92
2023-04-26T07:48:16.968Z,12.01
2023-04-26T07:49:19.861Z,12.01
2023-04-26T07:50:22.769Z,11.92
2023-04-26T07:51:26.577Z,11.80
2023-04-26T07:52:29.494Z,11.75
2023-04-26T07:53:32.466Z,11.75
2023-04-26T07:54:35.641Z,11.84
2023-04-26T07:55:38.573Z,12.07
2023-04-26T07:56:41.412Z,12.22
2023-04-26T07:57:44.306Z,12.39
2023-04-26T07:58:47.269Z,12.47
2023-04-26T07:59:50.194Z,12.44
2023-04-26T08:00:53.080Z,12.28
2023-04-26T08:01:55.989Z,12.13
2023-04-26T08:02:59.015Z,11.97
2023-04-26T08:04:02.629Z,11.81
2023-04-26T08:05:06.379Z,11.71
2023-04-26T08:06:09.392Z,11.59
2023-04-26T08:07:12.445Z,11.42
2023-04-26T08:08:17.161Z,11.28
2023-04-26T08:09:21.447Z,11.24
2023-04-26T08:10:24.398Z,11.16
2023-04-26T08:11:27.555Z,11.11
2023-04-26T08:12:30.537Z,10.99
2023-04-26T08:13:33.376Z,10.83
2023-04-26T08:14:36.905Z,10.68
2023-04-26T08:15:39.771Z,10.60
2023-04-26T08:16:43.900Z,10.57
2023-04-26T08:17:48.354Z,10.53
2023-04-26T08:18:51.342Z,10.48
2023-04-26T08:19:54.394Z,10.44
2023-04-26T08:20:57.470Z,10.39
2023-04-26T08:22:00.484Z,10.31
2023-04-26T08:23:03.408Z,10.22
2023-04-26T08:24:07.385Z,10.17
2023-04-26T08:25:10.971Z,10.05
2023-04-26T08:26:13.980Z,10.01
2023-04-26T08:27:17.826Z,9.93
2023-04-26T08:28:21.606Z,9.92
2023-04-26T08:29:26.886Z,9.86
2023-04-26T08:30:29.957Z,9.83
2023-04-26T08:31:32.933Z,9.87
2023-04-26T08:32:35.972Z,10.05
2023-04-26T08:33:38.843Z,10.31
2023-04-26T08:34:41.683Z,10.59
2023-04-26T08:35:44.596Z,10.77
2023-04-26T08:36:47.547Z,10.84
2023-04-26T08:37:50.797Z,10.88
2023-04-26T08:38:54.017Z,10.81
2023-04-26T08:39:57.255Z,10.74
2023-04-26T08:41:03.545Z,10.70
2023-04-26T08:42:14.216Z,10.66
2023-04-26T08:43:19.694Z,10.54
2023-04-26T08:44:24.572Z,10.45
2023-04-26T08:45:27.505Z,10.38
2023-04-26T08:46:36.783Z,10.37
2023-04-26T08:47:49.036Z,10.42
2023-04-26T08:49:06.364Z,10.59
2023-04-26T08:50:15.085Z,10.88
2023-04-26T08:51:19.036Z,11.16
2023-04-26T08:52:23.541Z,11.36
2023-04-26T08:53:27.206Z,11.50
2023-04-26T08:54:31.448Z,11.61
2023-04-26T08:55:36.828Z,11.75
2023-04-26T08:56:43.303Z,11.76
2023-04-26T08:57:47.787Z,11.82
2023-04-26T08:58:52.120Z,11.76
2023-04-26T08:59:58.437Z,11.73
2023-04-26T09:01:03.548Z,11.68
2023-04-26T09:02:07.525Z,11.60
2023-04-26T09:03:11.034Z,11.46
2023-04-26T09:04:14.594Z,11.30
2023-04-26T09:05:17.814Z,11.12
2023-04-26T09:06:21.773Z,10.93
2023-04-26T09:07:35.784Z,10.79
2023-04-26T09:08:41.852Z,10.69
2023-04-26T09:09:49.596Z,10.72
2023-04-26T09:10:52.453Z,10.68
2023-04-26T09:11:59.962Z,10.84
2023-04-26T09:13:02.831Z,11.06
2023-04-26T09:14:06.515Z,11.19
2023-04-26T09:15:10.609Z,11.19
2023-04-26T09:16:13.565Z,11.14
2023-04-26T09:17:26.415Z,11.05
2023-04-26T09:18:31.444Z,10.93
2023-04-26T09:19:38.708Z,10.87
2023-04-26T09:20:41.624Z,10.80
2023-04-26T09:21:46.548Z,10.69
2023-04-26T09:22:52.150Z,10.57
2023-04-26T09:24:01.802Z,10.46
2023-04-26T09:25:07.274Z,10.31
2023-04-26T09:26:21.181Z,10.23
2023-04-26T09:27:43.450Z,10.15
2023-04-26T09:28:47.603Z,10.10
2023-04-26T09:30:09.360Z,10.10
2023-04-26T09:31:13.433Z,10.14
2023-04-26T09:32:16.312Z,10.25
2023-04-26T09:33:19.660Z,10.51
2023-04-26T09:34:22.617Z,10.78
2023-04-26T09:35:35.981Z,11.05
2023-04-26T09:36:52.725Z,11.39
2023-04-26T09:38:13.558Z,11.72
2023-04-26T09:39:35.500Z,11.93
2023-04-26T09:40:49.109Z,12.26
2023-04-26T09:41:52.454Z,12.42
2023-04-26T09:42:58.992Z,12.69
2023-04-26T09:44:02.023Z,12.95
2023-04-26T09:45:08.789Z,13.18
2023-04-26T09:46:11.702Z,13.48
2023-04-26T09:47:14.632Z,13.60
2023-04-26T09:48:23.181Z,13.72
2023-04-26T09:49:27.614Z,13.76
2023-04-26T09:50:31.699Z,13.79
2023-04-26T09:51:34.552Z,13.85
2023-04-26T09:52:44.515Z,13.94
2023-04-26T09:53:50.087Z,13.92
2023-04-26T09:54:54.327Z,13.87
2023-04-26T09:56:05.918Z,13.73
2023-04-26T09:57:09.333Z,13.61
2023-04-26T09:58:12.534Z,13.49
2023-04-26T09:59:15.761Z,13.31
2023-04-26T10:00:19.945Z,13.11
2023-04-26T10:01:23.275Z,12.95
2023-04-26T10:02:27.780Z,12.73
2023-04-26T10:03:32.519Z,12.51
2023-04-26T10:04:35.900Z,12.41
2023-04-26T10:05:39.198Z,12.24
2023-04-26T10:06:42.029Z,12.04
2023-04-26T10:07:45.802Z,11.86
2023-04-26T10:08:48.667Z,11.71
2023-04-26T10:09:52.032Z,11.74
2023-04-26T10:10:55.702Z,11.96
2023-04-26T10:12:00.146Z,12.25
2023-04-26T10:13:06.047Z,12.61
2023-04-26T10:14:09.054Z,12.95
2023-04-26T10:15:12.249Z,13.14
2023-04-26T10:16:17.166Z,13.12
2023-04-26T10:17:21.073Z,13.00
2023-04-26T10:18:24.595Z,12.91
2023-04-26T10:19:27.641Z,12.83
2023-04-26T10:20:31.052Z,12.81
2023-04-26T10:21:38.112Z,12.87
2023-04-26T10:22:46.287Z,13.09
2023-04-26T10:23:49.856Z,13.25
2023-04-26T10:24:55.061Z,13.36
2023-04-26T10:25:57.934Z,13.41
2023-04-26T10:27:03.138Z,13.50
2023-04-26T10:28:06.090Z,13.68
2023-04-26T10:29:09.182Z,13.74
2023-04-26T10:30:14.045Z,13.79
2023-04-26T10:31:16.976Z,13.71
2023-04-26T10:32:23.455Z,13.66
2023-04-26T10:33:27.307Z,13.59
2023-04-26T10:34:31.990Z,13.49
2023-04-26T10:35:38.226Z,13.41
2023-04-26T10:37:17.495Z,13.27
2023-04-26T10:38:20.791Z,13.11
2023-04-26T10:39:25.055Z,12.95
2023-04-26T10:40:31.033Z,12.77
2023-04-26T10:41:36.127Z,12.68
2023-04-26T10:42:41.424Z,12.57
2023-04-26T10:43:44.507Z,12.47
2023-04-26T10:44:48.913Z,12.38
2023-04-26T10:45:52.022Z,12.31
2023-04-26T10:46:54.943Z,12.19
2023-04-26T10:48:23.299Z,12.10
2023-04-26T10:49:26.772Z,12.05
2023-04-26T10:50:29.711Z,12.08
2023-04-26T10:51:32.751Z,12.13
2023-04-26T10:52:37.418Z,12.19
2023-04-26T10:53:52.296Z,12.26
2023-04-26T10:54:59.263Z,12.29
2023-04-26T10:56:02.161Z,12.41
2023-04-26T10:57:05.132Z,12.47
2023-04-26T10:58:33.731Z,12.53
2023-04-26T10:59:51.229Z,12.54
2023-04-26T11:01:17.707Z,12.49
2023-04-26T11:02:53.411Z,12.39
2023-04-26T11:03:59.796Z,12.30
2023-04-26T11:05:04.412Z,12.36
2023-04-26T11:06:09.909Z,12.35
2023-04-26T11:07:14.096Z,12.28
2023-04-26T11:08:21.439Z,12.24
2023-04-26T11:09:40.908Z,12.16
2023-04-26T11:10:51.113Z,12.13
2023-04-26T11:11:53.953Z,12.14
2023-04-26T11:13:03.289Z,12.19
2023-04-26T11:14:06.699Z,12.19
2023-04-26T11:15:12.727Z,12.15
2023-04-26T11:16:17.060Z,12.10
2023-04-26T11:17:20.885Z,12.06
2023-04-26T11:18:24.319Z,11.99
2023-04-26T11:19:27.251Z,12.01
2023-04-26T11:20:31.825Z,12.06
2023-04-26T11:21:36.516Z,12.11
2023-04-26T11:22:42.482Z,12.14
2023-04-26T11:23:54.204Z,12.22
2023-04-26T11:24:57.228Z,12.43
2023-04-26T11:26:04.468Z,12.58
2023-04-26T11:27:11.993Z,12.72
2023-04-26T11:28:15.247Z,12.71
2023-04-26T11:29:21.617Z,12.71
2023-04-26T11:30:24.543Z,12.63
2023-04-26T11:31:34.548Z,12.50
2023-04-26T11:32:37.830Z,12.32
2023-04-26T11:33:42.006Z,12.19
2023-04-26T11:34:44.848Z,12.02
2023-04-26T11:35:48.078Z,11.88
2023-04-26T11:36:51.306Z,11.81
2023-04-26T11:37:54.283Z,11.70
2023-04-26T11:38:57.757Z,11.59
2023-04-26T11:40:00.578Z,11.53
2023-04-26T11:41:04.187Z,11.46
2023-04-26T11:42:08.661Z,11.38
2023-04-26T11:43:11.917Z,11.31
2023-04-26T11:44:19.722Z,11.24
2023-04-26T11:45:22.689Z,11.15
2023-04-26T11:46:25.710Z,11.10
2023-04-26T11:47:30.946Z,11.05
2023-04-26T11:48:36.129Z,10.98
2023-04-26T11:49:39.337Z,10.89
2023-04-26T11:50:42.766Z,10.83
2023-04-26T11:51:48.668Z,10.85
2023-04-26T11:52:51.692Z,10.85
2023-04-26T11:53:54.608Z,10.83
2023-04-26T11:55:07.489Z,10.84
2023-04-26T11:56:20.452Z,10.81
2023-04-26T11:57:23.308Z,10.84
2023-04-26T11:58:26.271Z,10.86
2023-04-26T11:59:30.862Z,10.88
2023-04-26T12:00:33.929Z,10.86
2023-04-26T12:01:36.845Z,10.89
2023-04-26T12:02:43.971Z,10.88
2023-04-26T12:03:50.967Z,10.87
2023-04-26T12:04:59.172Z,10.87
2023-04-26T12:06:02.228Z,10.88
2023-04-26T12:07:05.660Z,10.87
2023-04-26T12:08:10.434Z,10.90
2023-04-26T12:09:13.816Z,10.95
2023-04-26T12:10:18.124Z,11.08
2023-04-26T12:11:21.237Z,11.14
2023-04-26T12:12:24.460Z,11.19
2023-04-26T12:13:29.041Z,11.24
2023-04-26T12:14:33.740Z,11.29
2023-04-26T12:15:36.623Z,11.30
2023-04-26T12:16:42.553Z,11.31
2023-04-26T12:18:21.745Z,11.28
2023-04-26T12:19:24.730Z,11.26
2023-04-26T12:20:32.919Z,11.26
2023-04-26T12:21:43.243Z,11.17
2023-04-26T12:23:07.690Z,11.14
2023-04-26T12:24:40.505Z,11.04
2023-04-26T12:25:55.060Z,11.02
2023-04-26T12:26:59.135Z,11.05
2023-04-26T12:28:12.739Z,11.19
2023-04-26T12:29:15.840Z,11.23
2023-04-26T12:30:18.770Z,11.33
2023-04-26T12:31:21.801Z,11.44
2023-04-26T12:32:25.701Z,11.57
2023-04-26T12:33:28.586Z,11.64
2023-04-26T12:34:31.483Z,11.68
2023-04-26T12:35:35.278Z,11.70
2023-04-26T12:36:41.220Z,11.71
2023-04-26T12:37:44.473Z,11.75
2023-04-26T12:38:47.303Z,11.82
2023-04-26T12:39:50.231Z,11.83
2023-04-26T12:40:53.089Z,11.83
2023-04-26T12:41:55.965Z,11.85
2023-04-26T12:42:58.963Z,11.86
2023-04-26T12:44:01.879Z,11.82
2023-04-26T12:45:05.074Z,11.78
2023-04-26T12:46:08.103Z,11.76
2023-04-26T12:47:10.961Z,11.69
2023-04-26T12:48:14.052Z,11.55
2023-04-26T12:49:17.106Z,11.42
2023-04-26T12:50:20.033Z,11.34
2023-04-26T12:51:22.890Z,11.25
2023-04-26T12:52:26.017Z,11.12
2023-04-26T12:53:28.889Z,11.04
2023-04-26T12:54:31.935Z,10.97
2023-04-26T12:55:34.858Z,10.94
2023-04-26T12:56:43.619Z,10.91
2023-04-26T12:57:46.751Z,10.86
2023-04-26T12:58:49.788Z,10.89
2023-04-26T12:59:52.763Z,10.84
2023-04-26T13:00:55.905Z,10.81
2023-04-26T13:01:58.846Z,10.78
2023-04-26T13:03:02.613Z,10.71
2023-04-26T13:04:06.276Z,10.73
2023-04-26T13:05:10.669Z,10.72
2023-04-26T13:06:13.876Z,10.68
2023-04-26T13:07:17.362Z,10.69
2023-04-26T13:08:20.555Z,10.74
2023-04-26T13:09:23.471Z,10.80
2023-04-26T13:10:26.875Z,10.82
2023-04-26T13:11:29.790Z,10.89
2023-04-26T13:12:33.445Z,10.93
2023-04-26T13:13:43.895Z,11.00
2023-04-26T13:14:47.344Z,11.02
2023-04-26T13:15:50.558Z,11.04
2023-04-26T13:16:53.909Z,11.07
2023-04-26T13:17:56.990Z,11.09
2023-04-26T13:18:59.965Z,11.14
2023-04-26T13:20:05.905Z,11.23
2023-04-26T13:21:08.880Z,11.28
2023-04-26T13:22:12.329Z,11.26
2023-04-26T13:23:15.327Z,11.27
2023-04-26T13:24:18.176Z,11.26
2023-04-26T13:25:21.406Z,11.27
2023-04-26T13:26:26.386Z,11.28
2023-04-26T13:27:31.763Z,11.28
2023-04-26T13:28:36.475Z,11.27
2023-04-26T13:29:40.086Z,11.29
2023-04-26T13:30:42.940Z,11.28
2023-04-26T13:31:46.184Z,11.27
2023-04-26T13:32:49.636Z,11.31
2023-04-26T13:33:52.711Z,11.37
2023-04-26T13:34:56.098Z,11.46
2023-04-26T13:35:59.259Z,11.46
2023-04-26T13:37:03.965Z,11.51
2023-04-26T13:38:07.006Z,11.59
2023-04-26T13:39:10.122Z,11.59
2023-04-26T13:40:13.192Z,11.61
2023-04-26T13:41:16.318Z,11.65
2023-04-26T13:42:19.291Z,11.65
2023-04-26T13:43:22.371Z,11.69
2023-04-26T13:44:26.873Z,11.69
2023-04-26T13:45:30.047Z,11.70
2023-04-26T13:46:32.991Z,11.72
2023-04-26T13:47:36.747Z,11.73
2023-04-26T13:48:39.658Z,11.72
2023-04-26T13:49:42.838Z,11.70
2023-04-26T13:50:45.905Z,11.67
2023-04-26T13:51:49.105Z,11.62
2023-04-26T13:52:53.129Z,11.60
2023-04-26T13:53:56.547Z,11.60
2023-04-26T13:54:59.930Z,11.61
2023-04-26T13:56:02.969Z,11.65
2023-04-26T13:57:06.241Z,11.60
2023-04-26T13:58:09.598Z,11.59
2023-04-26T13:59:12.437Z,11.58
2023-04-26T14:00:16.001Z,11.53
2023-04-26T14:01:19.141Z,11.48
2023-04-26T14:02:22.291Z,11.44
2023-04-26T14:03:26.887Z,11.44
2023-04-26T14:04:30.267Z,11.40
2023-04-26T14:05:33.531Z,11.41